createdAt,value
2022-09-26T00:00:48.050Z,987.81
2022-09-26T00:01:48.116Z,987.80
2022-09-26T00:02:48.087Z,987.83
2022-09-26T00:03:47.953Z,987.90
2022-09-26T00:04:47.997Z,987.77
2022-09-26T00:05:47.967Z,987.81
2022-09-26T00:06:47.982Z,987.85
2022-09-26T00:07:47.941Z,987.80
2022-09-26T00:08:47.961Z,987.77
2022-09-26T00:09:47.933Z,987.79
2022-09-26T00:10:47.957Z,987.79
2022-09-26T00:11:47.946Z,987.75
2022-09-26T00:12:47.915Z,987.73
2022-09-26T00:13:47.924Z,987.72
2022-09-26T00:14:47.892Z,987.71
2022-09-26T00:15:47.941Z,987.71
2022-09-26T00:16:47.965Z,987.68
2022-09-26T00:17:47.885Z,987.70
2022-09-26T00:18:47.884Z,987.76
2022-09-26T00:19:47.965Z,987.65
2022-09-26T00:20:47.903Z,987.72
2022-09-26T00:21:47.936Z,987.75
2022-09-26T00:22:47.872Z,987.67
2022-09-26T00:23:47.856Z,987.71
2022-09-26T00:24:47.909Z,987.68
2022-09-26T00:25:47.865Z,987.67
2022-09-26T00:26:47.881Z,987.60
2022-09-26T00:27:48.841Z,987.63
2022-09-26T00:28:47.831Z,987.61
2022-09-26T00:29:47.844Z,987.66
2022-09-26T00:30:47.864Z,987.62
2022-09-26T00:31:47.893Z,987.67
2022-09-26T00:32:47.821Z,987.66
2022-09-26T00:33:47.798Z,987.66
2022-09-26T00:34:48.798Z,987.55
2022-09-26T00:35:47.806Z,987.56
2022-09-26T00:36:47.821Z,987.53
2022-09-26T00:37:47.787Z,987.52
2022-09-26T00:38:47.781Z,987.50
2022-09-26T00:39:47.781Z,987.56
2022-09-26T00:40:47.803Z,987.50
2022-09-26T00:41:47.774Z,987.49
2022-09-26T00:42:47.766Z,987.47
2022-09-26T00:43:47.775Z,987.48
2022-09-26T00:44:47.753Z,987.42
2022-09-26T00:45:47.828Z,987.41
2022-09-26T00:46:47.762Z,987.37
2022-09-26T00:47:47.779Z,987.39
2022-09-26T00:48:47.745Z,987.39
2022-09-26T00:49:47.739Z,987.39
2022-09-26T00:50:47.726Z,987.34
2022-09-26T00:51:47.729Z,987.41
2022-09-26T00:52:47.769Z,987.38
2022-09-26T00:53:47.713Z,987.34
2022-09-26T00:54:47.703Z,987.29
2022-09-26T00:55:47.718Z,987.34
2022-09-26T00:56:47.693Z,987.34
2022-09-26T00:57:47.717Z,987.32
2022-09-26T00:58:47.694Z,987.25
2022-09-26T00:59:47.684Z,987.15
2022-09-26T01:00:47.715Z,987.17
2022-09-26T01:01:47.800Z,987.19
2022-09-26T01:02:47.737Z,987.18
2022-09-26T01:03:47.691Z,987.17
2022-09-26T01:04:47.662Z,987.15
2022-09-26T01:05:47.685Z,987.11
2022-09-26T01:06:47.644Z,987.06
2022-09-26T01:07:47.653Z,987.11
2022-09-26T01:08:47.673Z,987.15
2022-09-26T01:09:47.658Z,987.12
2022-09-26T01:10:47.657Z,987.13
2022-09-26T01:11:48.573Z,987.11
2022-09-26T01:12:47.621Z,987.14
2022-09-26T01:13:47.608Z,987.09
2022-09-26T01:14:47.702Z,987.05
2022-09-26T01:15:47.589Z,987.03
2022-09-26T01:16:47.650Z,987.00
2022-09-26T01:17:47.572Z,986.99
2022-09-26T01:18:47.595Z,986.98
2022-09-26T01:19:47.590Z,986.91
2022-09-26T01:20:47.617Z,986.88
2022-09-26T01:21:47.586Z,986.96
2022-09-26T01:22:47.567Z,986.93
2022-09-26T01:23:47.568Z,986.93
2022-09-26T01:24:47.578Z,986.89
2022-09-26T01:25:47.592Z,986.92
2022-09-26T01:26:47.563Z,986.89
2022-09-26T01:27:47.541Z,986.86
2022-09-26T01:28:47.683Z,986.82
2022-09-26T01:29:47.515Z,986.83
2022-09-26T01:30:47.567Z,986.73
2022-09-26T01:31:47.492Z,986.71
2022-09-26T01:32:47.542Z,986.78
2022-09-26T01:33:47.497Z,986.77
2022-09-26T01:34:48.519Z,986.78
2022-09-26T01:35:47.499Z,986.80
2022-09-26T01:36:47.495Z,986.80
2022-09-26T01:37:47.509Z,986.76
2022-09-26T01:38:47.484Z,986.75
2022-09-26T01:39:47.470Z,986.74
2022-09-26T01:40:47.523Z,986.76
2022-09-26T01:41:47.476Z,986.79
2022-09-26T01:42:47.496Z,986.80
2022-09-26T01:43:47.464Z,986.73
2022-09-26T01:44:47.429Z,986.73
2022-09-26T01:45:47.470Z,986.73
2022-09-26T01:46:47.461Z,986.70
2022-09-26T01:47:47.445Z,986.75
2022-09-26T01:48:47.416Z,986.76
2022-09-26T01:49:47.439Z,986.73
2022-09-26T01:50:47.402Z,986.77
2022-09-26T01:51:47.412Z,986.71
2022-09-26T01:52:47.397Z,986.75
2022-09-26T01:53:47.385Z,986.76
2022-09-26T01:54:47.575Z,986.72
2022-09-26T01:55:47.392Z,986.77
2022-09-26T01:56:47.376Z,986.73
2022-09-26T01:57:47.389Z,986.74
2022-09-26T01:58:47.379Z,986.71
2022-09-26T01:59:47.400Z,986.73
2022-09-26T02:00:47.377Z,986.78
2022-09-26T02:01:47.421Z,986.73
2022-09-26T02:02:47.390Z,986.72
2022-09-26T02:03:47.338Z,986.70
2022-09-26T02:04:47.366Z,986.72
2022-09-26T02:05:47.332Z,986.69
2022-09-26T02:06:47.313Z,986.65
2022-09-26T02:07:47.300Z,986.58
2022-09-26T02:08:48.311Z,986.59
2022-09-26T02:09:47.304Z,986.51
2022-09-26T02:10:47.328Z,986.56
2022-09-26T02:11:47.327Z,986.56
2022-09-26T02:12:47.375Z,986.54
2022-09-26T02:13:47.397Z,986.52
2022-09-26T02:14:47.291Z,986.46
2022-09-26T02:15:47.340Z,986.48
2022-09-26T02:16:47.456Z,986.46
2022-09-26T02:17:47.268Z,986.44
2022-09-26T02:18:47.247Z,986.37
2022-09-26T02:19:47.246Z,986.40
2022-09-26T02:20:47.250Z,986.36
2022-09-26T02:21:47.265Z,986.37
2022-09-26T02:22:47.240Z,986.30
2022-09-26T02:23:47.235Z,986.34
2022-09-26T02:24:47.252Z,986.31
2022-09-26T02:25:47.245Z,986.29
2022-09-26T02:26:47.244Z,986.30
2022-09-26T02:27:47.251Z,986.30
2022-09-26T02:28:47.216Z,986.27
2022-09-26T02:29:47.209Z,986.30
2022-09-26T02:30:47.202Z,986.31
2022-09-26T02:31:47.283Z,986.26
2022-09-26T02:32:47.250Z,986.21
2022-09-26T02:33:47.220Z,986.24
2022-09-26T02:34:47.200Z,986.24
2022-09-26T02:35:47.185Z,986.15
2022-09-26T02:36:47.181Z,986.19
2022-09-26T02:37:47.198Z,986.13
2022-09-26T02:38:47.209Z,986.17
2022-09-26T02:39:47.157Z,986.07
2022-09-26T02:40:47.237Z,986.07
2022-09-26T02:41:47.154Z,986.05
2022-09-26T02:42:47.135Z,986.09
2022-09-26T02:43:47.134Z,986.18
2022-09-26T02:44:47.139Z,986.14
2022-09-26T02:45:47.246Z,986.06
2022-09-26T02:46:47.142Z,986.06
2022-09-26T02:47:47.161Z,986.01
2022-09-26T02:48:47.175Z,986.02
2022-09-26T02:49:47.105Z,986.04
2022-09-26T02:50:47.171Z,986.04
2022-09-26T02:51:47.112Z,986.11
2022-09-26T02:52:47.116Z,986.03
2022-09-26T02:53:47.126Z,986.05
2022-09-26T02:54:47.085Z,986.07
2022-09-26T02:55:47.092Z,986.01
2022-09-26T02:56:47.084Z,985.98
2022-09-26T02:57:47.105Z,985.97
2022-09-26T02:58:47.065Z,985.98
2022-09-26T02:59:47.059Z,986.04
2022-09-26T03:00:47.134Z,985.97
2022-09-26T03:01:47.039Z,985.97
2022-09-26T03:02:47.083Z,985.86
2022-09-26T03:03:47.098Z,985.90
2022-09-26T03:04:47.080Z,985.83
2022-09-26T03:05:47.020Z,985.92
2022-09-26T03:06:47.120Z,985.87
2022-09-26T03:07:47.038Z,985.88
2022-09-26T03:08:47.019Z,985.89
2022-09-26T03:09:46.999Z,985.76
2022-09-26T03:10:47.005Z,985.77
2022-09-26T03:11:47.020Z,985.75
2022-09-26T03:12:47.016Z,985.71
2022-09-26T03:13:47.007Z,985.72
2022-09-26T03:14:46.979Z,985.67
2022-09-26T03:15:46.981Z,985.66
2022-09-26T03:16:47.021Z,985.65
2022-09-26T03:17:46.965Z,985.64
2022-09-26T03:18:46.971Z,985.61
2022-09-26T03:19:46.958Z,985.55
2022-09-26T03:20:46.950Z,985.61
2022-09-26T03:21:46.938Z,985.58
2022-09-26T03:22:46.954Z,985.59
2022-09-26T03:23:46.945Z,985.56
2022-09-26T03:24:46.979Z,985.53
2022-09-26T03:25:46.939Z,985.56
2022-09-26T03:26:46.925Z,985.64
2022-09-26T03:27:46.902Z,985.53
2022-09-26T03:28:46.918Z,985.55
2022-09-26T03:29:46.938Z,985.54
2022-09-26T03:30:46.911Z,985.49
2022-09-26T03:31:46.963Z,985.47
2022-09-26T03:32:46.877Z,985.53
2022-09-26T03:33:46.881Z,985.49
2022-09-26T03:34:46.898Z,985.55
2022-09-26T03:35:46.862Z,985.52
2022-09-26T03:36:46.862Z,985.46
2022-09-26T03:37:46.875Z,985.46
2022-09-26T03:38:46.882Z,985.48
2022-09-26T03:39:46.872Z,985.50
2022-09-26T03:40:46.906Z,985.49
2022-09-26T03:41:46.875Z,985.45
2022-09-26T03:42:46.849Z,985.49
2022-09-26T03:43:46.834Z,985.46
2022-09-26T03:44:46.833Z,985.48
2022-09-26T03:45:46.880Z,985.42
2022-09-26T03:46:46.845Z,985.42
2022-09-26T03:47:46.815Z,985.40
2022-09-26T03:48:46.803Z,985.39
2022-09-26T03:49:46.826Z,985.35
2022-09-26T03:50:46.831Z,985.37
2022-09-26T03:51:46.798Z,985.34
2022-09-26T03:52:46.819Z,985.32
2022-09-26T03:53:46.819Z,985.35
2022-09-26T03:54:46.771Z,985.39
2022-09-26T03:55:46.778Z,985.36
2022-09-26T03:56:46.793Z,985.33
2022-09-26T03:57:46.789Z,985.31
2022-09-26T03:58:46.760Z,985.20
2022-09-26T03:59:46.750Z,985.24
2022-09-26T04:00:46.815Z,985.24
2022-09-26T04:01:46.779Z,985.30
2022-09-26T04:02:46.776Z,985.17
2022-09-26T04:03:50.581Z,985.15
2022-09-26T04:04:47.733Z,985.17
2022-09-26T04:05:46.733Z,985.10
2022-09-26T04:06:46.745Z,985.12
2022-09-26T04:07:46.708Z,985.13
2022-09-26T04:08:46.717Z,985.08
2022-09-26T04:09:46.713Z,985.06
2022-09-26T04:10:46.702Z,985.07
2022-09-26T04:11:46.707Z,985.04
2022-09-26T04:12:46.696Z,985.01
2022-09-26T04:13:52.009Z,985.00
2022-09-26T04:14:48.754Z,985.00
2022-09-26T04:15:46.689Z,985.02
2022-09-26T04:16:46.758Z,985.02
2022-09-26T04:17:46.661Z,984.98
2022-09-26T04:18:46.656Z,984.98
2022-09-26T04:19:46.678Z,984.90
2022-09-26T04:20:46.704Z,984.91
2022-09-26T04:21:46.664Z,984.94
2022-09-26T04:22:46.645Z,984.91
2022-09-26T04:23:46.632Z,984.88
2022-09-26T04:24:46.670Z,984.86
2022-09-26T04:25:46.643Z,984.80
2022-09-26T04:26:46.711Z,984.82
2022-09-26T04:27:46.622Z,984.80
2022-09-26T04:28:46.622Z,984.83
2022-09-26T04:29:46.660Z,984.80
2022-09-26T04:30:46.618Z,984.76
2022-09-26T04:31:46.732Z,984.81
2022-09-26T04:32:46.616Z,984.83
2022-09-26T04:33:46.620Z,984.82
2022-09-26T04:34:46.609Z,984.82
2022-09-26T04:35:46.593Z,984.81
2022-09-26T04:36:47.616Z,984.81
2022-09-26T04:37:46.652Z,984.78
2022-09-26T04:38:46.584Z,984.77
2022-09-26T04:39:46.582Z,984.75
2022-09-26T04:40:46.616Z,984.78
2022-09-26T04:41:46.583Z,984.69
2022-09-26T04:42:46.624Z,984.68
2022-09-26T04:43:46.577Z,984.70
2022-09-26T04:44:46.629Z,984.63
2022-09-26T04:45:47.440Z,984.64
2022-09-26T04:46:46.540Z,984.68
2022-09-26T04:47:46.580Z,984.67
2022-09-26T04:48:46.551Z,984.61
2022-09-26T04:49:46.544Z,984.60
2022-09-26T04:50:46.512Z,984.55
2022-09-26T04:51:46.527Z,984.54
2022-09-26T04:52:46.498Z,984.54
2022-09-26T04:53:46.556Z,984.51
2022-09-26T04:54:46.500Z,984.47
2022-09-26T04:55:46.506Z,984.44
2022-09-26T04:56:46.500Z,984.49
2022-09-26T04:57:46.486Z,984.42
2022-09-26T04:58:46.527Z,984.41
2022-09-26T04:59:46.543Z,984.34
2022-09-26T05:00:46.525Z,984.39
2022-09-26T05:01:46.584Z,984.38
2022-09-26T05:02:46.481Z,984.41
2022-09-26T05:03:46.497Z,984.40
2022-09-26T05:04:46.480Z,984.33
2022-09-26T05:05:46.485Z,984.42
2022-09-26T05:06:46.626Z,984.34
2022-09-26T05:07:46.431Z,984.31
2022-09-26T05:08:46.564Z,984.39
2022-09-26T05:09:46.441Z,984.38
2022-09-26T05:10:46.476Z,984.37
2022-09-26T05:11:46.418Z,984.31
2022-09-26T05:12:46.411Z,984.38
2022-09-26T05:13:50.093Z,984.34
2022-09-26T05:14:47.392Z,984.34
2022-09-26T05:15:46.465Z,984.31
2022-09-26T05:16:46.470Z,984.34
2022-09-26T05:17:46.391Z,984.34
2022-09-26T05:18:46.378Z,984.30
2022-09-26T05:19:46.403Z,984.32
2022-09-26T05:20:46.442Z,984.30
2022-09-26T05:21:46.379Z,984.28
2022-09-26T05:22:46.391Z,984.27
2022-09-26T05:23:46.373Z,984.28
2022-09-26T05:24:46.344Z,984.26
2022-09-26T05:25:46.371Z,984.27
2022-09-26T05:26:46.355Z,984.27
2022-09-26T05:27:46.360Z,984.25
2022-09-26T05:28:46.321Z,984.24
2022-09-26T05:29:46.341Z,984.26
2022-09-26T05:30:46.351Z,984.23
2022-09-26T05:31:46.398Z,984.24
2022-09-26T05:32:46.312Z,984.22
2022-09-26T05:33:46.377Z,984.26
2022-09-26T05:34:46.321Z,984.26
2022-09-26T05:35:46.340Z,984.20
2022-09-26T05:36:46.301Z,984.21
2022-09-26T05:37:46.291Z,984.18
2022-09-26T05:38:46.432Z,984.20
2022-09-26T05:39:46.307Z,984.11
2022-09-26T05:40:46.317Z,984.14
2022-09-26T05:41:46.308Z,984.11
2022-09-26T05:42:46.284Z,984.17
2022-09-26T05:43:46.330Z,984.10
2022-09-26T05:44:46.283Z,984.13
2022-09-26T05:45:46.406Z,984.13
2022-09-26T05:46:46.371Z,984.11
2022-09-26T05:47:46.253Z,984.12
2022-09-26T05:48:46.251Z,984.14
2022-09-26T05:49:46.257Z,984.09
2022-09-26T05:50:46.247Z,984.09
2022-09-26T05:51:46.244Z,984.16
2022-09-26T05:52:46.208Z,984.10
2022-09-26T05:53:46.283Z,984.09
2022-09-26T05:54:46.270Z,984.07
2022-09-26T05:55:46.322Z,984.06
2022-09-26T05:56:46.211Z,984.03
2022-09-26T05:57:46.185Z,984.02
2022-09-26T05:58:46.191Z,984.09
2022-09-26T05:59:46.197Z,984.09
2022-09-26T06:00:46.271Z,984.01
2022-09-26T06:01:47.143Z,984.00
2022-09-26T06:02:46.215Z,984.07
2022-09-26T06:03:46.184Z,984.02
2022-09-26T06:04:46.149Z,983.99
2022-09-26T06:05:46.155Z,984.02
2022-09-26T06:06:46.170Z,984.06
2022-09-26T06:07:46.186Z,984.00
2022-09-26T06:08:46.115Z,983.94
2022-09-26T06:09:46.185Z,983.95
2022-09-26T06:10:46.120Z,983.96
2022-09-26T06:11:46.124Z,983.90
2022-09-26T06:12:50.727Z,983.88
2022-09-26T06:13:48.128Z,983.85
2022-09-26T06:14:46.144Z,983.87
2022-09-26T06:15:46.135Z,983.88
2022-09-26T06:16:46.183Z,983.88
2022-09-26T06:17:46.120Z,983.88
2022-09-26T06:18:46.129Z,983.92
2022-09-26T06:19:46.140Z,983.86
2022-09-26T06:20:46.070Z,983.91
2022-09-26T06:21:46.091Z,983.91
2022-09-26T06:22:46.147Z,983.88
2022-09-26T06:23:46.117Z,983.84
2022-09-26T06:24:46.094Z,983.84
2022-09-26T06:25:46.064Z,983.80
2022-09-26T06:26:46.053Z,983.81
2022-09-26T06:27:46.099Z,983.81
2022-09-26T06:28:46.088Z,983.80
2022-09-26T06:29:46.054Z,983.73
2022-09-26T06:30:46.072Z,983.79
2022-09-26T06:31:46.142Z,983.73
2022-09-26T06:32:46.023Z,983.66
2022-09-26T06:33:46.064Z,983.72
2022-09-26T06:34:46.105Z,983.71
2022-09-26T06:35:46.020Z,983.67
2022-09-26T06:36:46.021Z,983.68
2022-09-26T06:37:46.022Z,983.69
2022-09-26T06:38:46.051Z,983.61
2022-09-26T06:39:46.056Z,983.59
2022-09-26T06:40:46.057Z,983.60
2022-09-26T06:41:45.976Z,983.61
2022-09-26T06:42:46.043Z,983.68
2022-09-26T06:43:45.971Z,983.59
2022-09-26T06:44:47.002Z,983.62
2022-09-26T06:45:45.992Z,983.55
2022-09-26T06:46:45.986Z,983.57
2022-09-26T06:47:46.023Z,983.61
2022-09-26T06:48:45.961Z,983.59
2022-09-26T06:49:45.958Z,983.57
2022-09-26T06:50:45.980Z,983.58
2022-09-26T06:51:46.967Z,983.57
2022-09-26T06:52:45.948Z,983.62
2022-09-26T06:53:46.003Z,983.60
2022-09-26T06:54:45.935Z,983.58
2022-09-26T06:55:45.935Z,983.61
2022-09-26T06:56:45.937Z,983.55
2022-09-26T06:57:47.109Z,983.53
2022-09-26T06:58:45.898Z,983.48
2022-09-26T06:59:45.889Z,983.42
2022-09-26T07:00:46.030Z,983.54
2022-09-26T07:01:45.965Z,983.44
2022-09-26T07:02:45.876Z,983.50
2022-09-26T07:03:46.264Z,983.53
2022-09-26T07:04:45.882Z,983.47
2022-09-26T07:05:45.884Z,983.46
2022-09-26T07:06:45.913Z,983.48
2022-09-26T07:07:45.932Z,983.45
2022-09-26T07:09:03.881Z,983.42
2022-09-26T07:09:47.849Z,983.44
2022-09-26T07:10:45.835Z,983.41
2022-09-26T07:12:12.863Z,983.29
2022-09-26T07:12:47.861Z,983.32
2022-09-26T07:13:45.837Z,983.33
2022-09-26T07:14:48.872Z,983.22
2022-09-26T07:15:46.874Z,983.19
2022-09-26T07:16:45.810Z,983.18
2022-09-26T07:17:45.794Z,983.22
2022-09-26T07:18:45.801Z,983.22
2022-09-26T07:19:45.907Z,983.22
2022-09-26T07:20:45.760Z,983.20
2022-09-26T07:21:45.770Z,983.21
2022-09-26T07:22:45.794Z,983.23
2022-09-26T07:23:45.780Z,983.19
2022-09-26T07:24:45.841Z,983.19
2022-09-26T07:25:45.843Z,983.12
2022-09-26T07:26:45.940Z,983.12
2022-09-26T07:27:45.842Z,983.15
2022-09-26T07:28:47.742Z,983.09
2022-09-26T07:29:46.790Z,983.08
2022-09-26T07:30:45.811Z,983.05
2022-09-26T07:31:45.879Z,983.00
2022-09-26T07:32:45.761Z,983.03
2022-09-26T07:33:45.693Z,982.99
2022-09-26T07:34:45.838Z,982.93
2022-09-26T07:35:45.793Z,982.94
2022-09-26T07:36:45.685Z,982.94
2022-09-26T07:37:45.719Z,982.98
2022-09-26T07:38:45.709Z,982.98
2022-09-26T07:39:47.415Z,982.88
2022-09-26T07:40:45.741Z,982.93
2022-09-26T07:41:46.163Z,982.93
2022-09-26T07:42:58.593Z,982.90
2022-09-26T07:45:47.624Z,982.86
2022-09-26T07:46:45.795Z,982.87
2022-09-26T07:47:45.605Z,982.93
2022-09-26T07:48:45.608Z,982.89
2022-09-26T07:49:45.628Z,982.90
2022-09-26T07:50:45.614Z,982.84
2022-09-26T07:51:45.660Z,982.88
2022-09-26T07:52:45.630Z,982.85
2022-09-26T07:53:45.626Z,982.91
2022-09-26T07:54:45.587Z,982.84
2022-09-26T07:55:45.576Z,982.82
2022-09-26T07:56:45.587Z,982.83
2022-09-26T07:57:45.572Z,982.86
2022-09-26T07:58:45.564Z,982.84
2022-09-26T07:59:45.565Z,982.79
2022-09-26T08:00:45.588Z,982.82
2022-09-26T08:01:45.571Z,982.76
2022-09-26T08:02:45.632Z,982.78
2022-09-26T08:03:45.514Z,982.82
2022-09-26T08:04:45.506Z,982.81
2022-09-26T08:05:45.564Z,982.81
2022-09-26T08:06:45.510Z,982.80
2022-09-26T08:07:45.492Z,982.83
2022-09-26T08:08:46.526Z,982.79
2022-09-26T08:09:45.493Z,982.81
2022-09-26T08:10:45.486Z,982.78
2022-09-26T08:11:45.476Z,982.81
2022-09-26T08:12:45.477Z,982.80
2022-09-26T08:13:45.513Z,982.81
2022-09-26T08:14:45.442Z,982.82
2022-09-26T08:15:45.478Z,982.87
2022-09-26T08:16:45.450Z,982.81
2022-09-26T08:17:45.496Z,982.77
2022-09-26T08:18:45.440Z,982.77
2022-09-26T08:19:45.460Z,982.75
2022-09-26T08:20:45.425Z,982.77
2022-09-26T08:21:45.448Z,982.80
2022-09-26T08:22:45.418Z,982.77
2022-09-26T08:23:45.424Z,982.77
2022-09-26T08:24:45.406Z,982.69
2022-09-26T08:25:45.393Z,982.75
2022-09-26T08:26:45.438Z,982.60
2022-09-26T08:27:45.407Z,982.65
2022-09-26T08:28:45.363Z,982.66
2022-09-26T08:29:45.462Z,982.66
2022-09-26T08:30:45.359Z,982.60
2022-09-26T08:31:45.381Z,982.57
2022-09-26T08:32:45.383Z,982.62
2022-09-26T08:33:45.360Z,982.58
2022-09-26T08:34:45.316Z,982.57
2022-09-26T08:35:45.318Z,982.57
2022-09-26T08:36:45.317Z,982.64
2022-09-26T08:37:45.321Z,982.58
2022-09-26T08:38:45.337Z,982.60
2022-09-26T08:39:45.310Z,982.70
2022-09-26T08:40:45.330Z,982.66
2022-09-26T08:41:45.302Z,982.64
2022-09-26T08:42:45.305Z,982.63
2022-09-26T08:43:45.315Z,982.71
2022-09-26T08:44:45.379Z,982.66
2022-09-26T08:45:47.717Z,982.61
2022-09-26T08:46:46.296Z,982.62
2022-09-26T08:47:45.258Z,982.57
2022-09-26T08:48:45.329Z,982.56
2022-09-26T08:49:45.241Z,982.61
2022-09-26T08:50:45.236Z,982.57
2022-09-26T08:51:45.261Z,982.58
2022-09-26T08:52:45.225Z,982.55
2022-09-26T08:53:45.229Z,982.51
2022-09-26T08:54:45.232Z,982.49
2022-09-26T08:55:45.189Z,982.43
2022-09-26T08:56:45.205Z,982.45
2022-09-26T08:57:45.178Z,982.48
2022-09-26T08:58:45.192Z,982.47
2022-09-26T08:59:45.207Z,982.43
2022-09-26T09:00:45.197Z,982.45
2022-09-26T09:01:45.273Z,982.47
2022-09-26T09:02:45.352Z,982.32
2022-09-26T09:03:45.123Z,982.35
2022-09-26T09:04:46.500Z,982.34
2022-09-26T09:05:45.151Z,982.26
2022-09-26T09:06:45.159Z,982.25
2022-09-26T09:07:45.106Z,982.17
2022-09-26T09:08:45.105Z,982.22
2022-09-26T09:09:45.084Z,982.20
2022-09-26T09:10:45.137Z,982.12
2022-09-26T09:11:48.059Z,982.08
2022-09-26T09:12:46.103Z,982.12
2022-09-26T09:13:45.093Z,982.13
2022-09-26T09:14:45.049Z,982.16
2022-09-26T09:15:45.080Z,982.11
2022-09-26T09:16:45.063Z,982.08
2022-09-26T09:17:45.024Z,982.13
2022-09-26T09:18:45.030Z,982.15
2022-09-26T09:19:45.008Z,982.06
2022-09-26T09:20:45.011Z,982.03
2022-09-26T09:21:45.037Z,982.10
2022-09-26T09:22:45.031Z,982.08
2022-09-26T09:23:44.984Z,982.01
2022-09-26T09:24:44.983Z,982.05
2022-09-26T09:25:44.966Z,982.06
2022-09-26T09:27:54.697Z,981.99
2022-09-26T09:28:47.033Z,981.99
2022-09-26T09:29:49.347Z,982.01
2022-09-26T09:30:45.949Z,981.90
2022-09-26T09:31:44.989Z,981.96
2022-09-26T09:32:44.948Z,981.96
2022-09-26T09:33:44.896Z,981.94
2022-09-26T09:34:44.873Z,981.96
2022-09-26T09:35:44.895Z,981.97
2022-09-26T09:36:44.941Z,981.93
2022-09-26T09:37:44.914Z,981.92
2022-09-26T09:38:44.879Z,981.97
2022-09-26T09:39:44.903Z,981.98
2022-09-26T09:40:45.003Z,981.96
2022-09-26T09:41:44.886Z,982.01
2022-09-26T09:42:44.823Z,981.96
2022-09-26T09:43:44.861Z,982.02
2022-09-26T09:44:46.961Z,981.95
2022-09-26T09:45:45.800Z,981.90
2022-09-26T09:46:44.877Z,981.91
2022-09-26T09:47:44.878Z,981.82
2022-09-26T09:48:44.787Z,981.82
2022-09-26T09:49:44.897Z,981.77
2022-09-26T09:50:44.772Z,981.77
2022-09-26T09:51:44.775Z,981.77
2022-09-26T09:52:44.773Z,981.68
2022-09-26T09:53:44.755Z,981.72
2022-09-26T09:54:44.776Z,981.78
2022-09-26T09:55:44.757Z,981.66
2022-09-26T09:56:44.734Z,981.75
2022-09-26T09:57:44.723Z,981.67
2022-09-26T09:58:44.716Z,981.67
2022-09-26T09:59:44.722Z,981.65
2022-09-26T10:00:49.064Z,981.61
2022-09-26T10:01:46.717Z,981.50
2022-09-26T10:02:44.742Z,981.49
2022-09-26T10:03:44.743Z,981.51
2022-09-26T10:04:44.663Z,981.53
2022-09-26T10:05:44.707Z,981.48
2022-09-26T10:06:47.377Z,981.55
2022-09-26T10:07:44.656Z,981.48
2022-09-26T10:08:44.628Z,981.50
2022-09-26T10:09:44.643Z,981.45
2022-09-26T10:10:44.708Z,981.35
2022-09-26T10:11:47.965Z,981.34
2022-09-26T10:12:45.611Z,981.44
2022-09-26T10:13:44.596Z,981.32
2022-09-26T10:14:44.582Z,981.22
2022-09-26T10:15:44.611Z,981.23
2022-09-26T10:16:44.573Z,981.23
2022-09-26T10:18:00.896Z,981.20
2022-09-26T10:18:46.560Z,981.18
2022-09-26T10:19:44.538Z,981.18
2022-09-26T10:20:44.543Z,981.21
2022-09-26T10:21:44.545Z,981.25
2022-09-26T10:22:44.558Z,981.20
2022-09-26T10:23:44.542Z,981.24
2022-09-26T10:24:44.512Z,981.28
2022-09-26T10:25:44.502Z,981.25
2022-09-26T10:26:44.551Z,981.34
2022-09-26T10:27:44.497Z,981.29
2022-09-26T10:28:44.522Z,981.25
2022-09-26T10:29:44.468Z,981.25
2022-09-26T10:30:44.498Z,981.23
2022-09-26T10:31:44.516Z,981.23
2022-09-26T10:32:44.517Z,981.21
2022-09-26T10:33:44.470Z,981.17
2022-09-26T10:34:44.455Z,981.16
2022-09-26T10:35:44.459Z,981.18
2022-09-26T10:36:44.438Z,981.01
2022-09-26T10:37:44.408Z,981.10
2022-09-26T10:38:44.407Z,981.06
2022-09-26T10:39:44.380Z,981.06
2022-09-26T10:40:44.432Z,981.01
2022-09-26T10:41:44.367Z,981.11
2022-09-26T10:42:44.346Z,981.05
2022-09-26T10:43:44.360Z,981.05
2022-09-26T10:44:44.367Z,981.04
2022-09-26T10:45:44.354Z,980.99
2022-09-26T10:46:44.388Z,980.95
2022-09-26T10:47:44.327Z,981.02
2022-09-26T10:48:44.310Z,980.94
2022-09-26T10:49:44.347Z,981.01
2022-09-26T10:50:44.292Z,980.92
2022-09-26T10:51:44.309Z,980.99
2022-09-26T10:52:44.279Z,981.01
2022-09-26T10:53:44.277Z,981.03
2022-09-26T10:54:44.334Z,981.04
2022-09-26T10:55:44.303Z,980.96
2022-09-26T10:56:44.298Z,981.07
2022-09-26T10:57:45.599Z,981.03
2022-09-26T10:58:44.249Z,980.96
2022-09-26T10:59:44.247Z,980.97
2022-09-26T11:00:44.261Z,980.94
2022-09-26T11:01:44.268Z,980.95
2022-09-26T11:02:44.225Z,980.97
2022-09-26T11:03:44.277Z,980.99
2022-09-26T11:04:44.269Z,980.97
2022-09-26T11:05:44.262Z,980.89
2022-09-26T11:06:44.194Z,980.88
2022-09-26T11:07:44.179Z,980.96
2022-09-26T11:08:44.236Z,980.93
2022-09-26T11:09:44.151Z,980.93
2022-09-26T11:10:44.149Z,980.93
2022-09-26T11:11:44.164Z,980.91
2022-09-26T11:12:44.146Z,980.85
2022-09-26T11:13:44.109Z,980.84
2022-09-26T11:14:44.146Z,980.85
2022-09-26T11:15:44.123Z,980.86
2022-09-26T11:16:44.135Z,980.83
2022-09-26T11:17:44.220Z,980.78
2022-09-26T11:18:44.108Z,980.89
2022-09-26T11:19:44.082Z,980.88
2022-09-26T11:20:44.086Z,980.91
2022-09-26T11:21:44.049Z,980.82
2022-09-26T11:22:45.095Z,980.73
2022-09-26T11:23:44.071Z,980.80
2022-09-26T11:24:44.074Z,980.80
2022-09-26T11:25:44.038Z,980.82
2022-09-26T11:26:44.023Z,980.88
2022-09-26T11:27:44.057Z,980.83
2022-09-26T11:28:43.992Z,980.80
2022-09-26T11:29:43.982Z,980.80
2022-09-26T11:30:44.034Z,980.75
2022-09-26T11:31:44.146Z,980.83
2022-09-26T11:32:43.979Z,980.77
2022-09-26T11:33:43.981Z,980.80
2022-09-26T11:34:43.985Z,980.72
2022-09-26T11:35:43.940Z,980.77
2022-09-26T11:36:44.968Z,980.76
2022-09-26T11:37:43.955Z,980.70
2022-09-26T11:38:43.926Z,980.72
2022-09-26T11:39:43.920Z,980.68
2022-09-26T11:40:44.004Z,980.71
2022-09-26T11:41:43.898Z,980.70
2022-09-26T11:42:43.928Z,980.64
2022-09-26T11:43:43.910Z,980.65
2022-09-26T11:44:43.912Z,980.60
2022-09-26T11:45:47.348Z,980.55
2022-09-26T11:46:44.892Z,980.57
2022-09-26T11:47:43.864Z,980.52
2022-09-26T11:48:43.842Z,980.58
2022-09-26T11:49:44.532Z,980.49
2022-09-26T11:50:43.844Z,980.56
2022-09-26T11:51:43.809Z,980.36
2022-09-26T11:52:48.356Z,980.49
2022-09-26T11:53:45.813Z,980.45
2022-09-26T11:54:43.810Z,980.37
2022-09-26T11:55:43.799Z,980.39
2022-09-26T11:56:43.764Z,980.40
2022-09-26T11:57:44.793Z,980.29
2022-09-26T11:58:43.776Z,980.36
2022-09-26T11:59:43.785Z,980.42
2022-09-26T12:00:43.817Z,980.37
2022-09-26T12:01:43.758Z,980.35
2022-09-26T12:02:43.792Z,980.38
2022-09-26T12:03:43.857Z,980.41
2022-09-26T12:04:43.710Z,980.33
2022-09-26T12:05:43.708Z,980.35
2022-09-26T12:06:43.726Z,980.30
2022-09-26T12:07:43.698Z,980.33
2022-09-26T12:08:43.711Z,980.29
2022-09-26T12:09:43.725Z,980.28
2022-09-26T12:10:43.692Z,980.26
2022-09-26T12:11:43.678Z,980.22
2022-09-26T12:12:43.645Z,980.23
2022-09-26T12:13:43.690Z,980.23
2022-09-26T12:14:43.642Z,980.16
2022-09-26T12:15:43.760Z,980.17
2022-09-26T12:16:43.672Z,980.18
2022-09-26T12:17:43.613Z,980.12
2022-09-26T12:18:43.619Z,980.21
2022-09-26T12:19:43.594Z,980.13
2022-09-26T12:20:43.603Z,980.14
2022-09-26T12:21:43.573Z,980.06
2022-09-26T12:22:43.578Z,980.06
2022-09-26T12:23:43.617Z,980.13
2022-09-26T12:24:43.594Z,980.08
2022-09-26T12:25:43.553Z,980.18
2022-09-26T12:26:43.532Z,980.08
2022-09-26T12:27:43.564Z,980.02
2022-09-26T12:28:43.540Z,980.04
2022-09-26T12:29:43.545Z,980.14
2022-09-26T12:30:43.590Z,980.07
2022-09-26T12:31:43.556Z,980.05